Time;durP1;ratioP1;P1;durP2;ratioP2;P2;SDS_P1;SDS_P2;PMS_P1;PMS_P2;Temp;Humidity;BMP_temperature;BMP_pressure;BME280_temperature;BME280_humidity;BME280_pressure;Samples;Min_cycle;Max_cycle;Signal;HPM_P1;HPM_P2
2023/08/19 00:00:23;;;;;;;12.38;8.95;;;;;;;19.14;58.10;101441.50;4977384;28;20504;-78
2023/08/19 00:02:49;;;;;;;11.43;9.43;;;;;;;19.16;58.14;101444.91;4970129;28;20085;-77
2023/08/19 00:05:18;;;;;;;11.18;8.68;;;;;;;19.18;58.11;101448.28;4979809;28;20048;-76
2023/08/19 00:07:44;;;;;;;10.75;7.60;;;;;;;19.33;57.63;101456.19;4974039;28;20129;-74
2023/08/19 00:10:09;;;;;;;12.80;8.93;;;;;;;19.25;57.50;101459.31;4958365;28;20117;-76
2023/08/19 00:12:35;;;;;;;13.10;8.13;;;;;;;19.15;57.91;101453.81;4974186;28;20045;-76
2023/08/19 00:15:00;;;;;;;13.38;9.10;;;;;;;19.21;58.13;101453.41;4993977;28;20443;-78
2023/08/19 00:17:26;;;;;;;11.57;8.65;;;;;;;19.21;57.83;101444.59;4989264;28;20037;-77
2023/08/19 00:19:51;;;;;;;9.80;8.35;;;;;;;19.07;58.37;101440.22;4989049;28;20824;-77
2023/08/19 00:22:18;;;;;;;10.80;8.40;;;;;;;19.14;57.85;101428.25;4991551;28;20482;-75
2023/08/19 00:24:44;;;;;;;12.23;8.73;;;;;;;19.17;57.77;101424.56;4957550;28;20037;-77
2023/08/19 00:27:09;;;;;;;10.00;8.63;;;;;;;19.06;58.19;101420.00;4977435;28;20045;-77
2023/08/19 00:29:35;;;;;;;11.32;7.75;;;;;;;19.13;58.15;101423.09;4972570;28;20563;-78
2023/08/19 00:32:02;;;;;;;14.93;9.85;;;;;;;18.99;58.40;101426.63;4979016;28;20069;-76
2023/08/19 00:34:38;;;;;;;15.93;8.93;;;;;;;19.05;58.04;101418.28;4971450;28;20049;-76
2023/08/19 00:37:04;;;;;;;11.43;8.52;;;;;;;19.11;57.76;101422.34;4977835;28;20396;-76
2023/08/19 00:39:29;;;;;;;12.13;8.00;;;;;;;19.05;58.22;101420.94;4979111;28;20077;-76
2023/08/19 00:41:55;;;;;;;11.35;8.32;;;;;;;19.02;58.06;101408.75;4962539;28;20112;-77
2023/08/19 00:44:21;;;;;;;10.77;8.20;;;;;;;18.88;58.67;101411.50;4969467;28;20156;-76
2023/08/19 00:46:47;;;;;;;11.27;8.13;;;;;;;18.99;57.97;101411.63;4975343;28;20560;-78
2023/08/19 00:49:13;;;;;;;13.18;8.82;;;;;;;19.03;57.87;101409.59;4977524;28;20524;-78
2023/08/19 00:51:38;;;;;;;14.75;8.80;;;;;;;19.03;58.11;101409.59;4990783;28;20038;-77
2023/08/19 00:54:04;;;;;;;15.30;8.60;;;;;;;18.93;58.25;101403.22;4973265;28;20073;-77
2023/08/19 00:56:30;;;;;;;9.55;8.65;;;;;;;19.05;58.22;101405.03;4976137;28;20120;-76
2023/08/19 00:58:56;;;;;;;14.25;9.13;;;;;;;19.00;57.94;101396.56;4965430;28;20121;-78
2023/08/19 01:01:21;;;;;;;13.50;8.50;;;;;;;19.05;57.72;101405.03;4990990;28;20113;-75
2023/08/19 01:03:47;;;;;;;12.93;8.70;;;;;;;18.92;58.48;101406.81;4974875;28;20557;-74
2023/08/19 01:06:18;;;;;;;12.82;8.70;;;;;;;18.95;57.99;101401.34;4961555;28;20033;-77
2023/08/19 01:09:04;;;;;;;11.10;9.10;;;;;;;18.79;58.92;101410.28;4987580;28;20089;-77
2023/08/19 01:11:42;;;;;;;10.25;8.38;;;;;;;18.86;58.64;101400.13;4978818;28;20120;-75
2023/08/19 01:14:34;;;;;;;11.88;9.23;;;;;;;18.76;58.61;101399.84;4961457;28;20038;-76
2023/08/19 01:17:03;;;;;;;11.27;9.02;;;;;;;18.68;58.89;101396.91;5009455;28;20037;-78
2023/08/19 01:19:33;;;;;;;13.27;8.55;;;;;;;18.78;58.41;101403.25;4982164;28;20045;-77
2023/08/19 01:22:05;;;;;;;8.82;8.00;;;;;;;18.76;58.27;101399.03;4974793;28;20186;-76
2023/08/19 01:24:33;;;;;;;;;;;;;;;18.67;59.04;101395.19;4977621;28;20140;-78
2023/08/19 01:26:58;;;;;;;17.58;8.80;;;;;;;18.75;58.70;101392.03;4979518;28;19963;-77
2023/08/19 01:29:24;;;;;;;13.45;9.38;;;;;;;18.78;58.48;101391.81;4982174;28;20050;-76
2023/08/19 01:31:50;;;;;;;9.02;8.13;;;;;;;18.75;58.44;101384.94;4992207;28;20053;-76
2023/08/19 01:34:16;;;;;;;11.95;9.65;;;;;;;18.65;58.76;101383.84;4977685;28;20050;-77
2023/08/19 01:36:46;;;;;;;14.27;10.80;;;;;;;18.66;58.89;101383.75;4977087;28;20030;-77
2023/08/19 01:39:13;;;;;;;11.48;10.27;;;;;;;18.57;58.84;101389.66;4980311;28;20081;-76
2023/08/19 01:41:40;;;;;;;9.63;8.68;;;;;;;18.64;58.47;101390.94;4976198;28;20076;-74
2023/08/19 01:44:06;;;;;;;10.27;9.27;;;;;;;18.64;58.42;101380.34;4972300;28;20206;-76
2023/08/19 01:46:32;;;;;;;13.38;9.93;;;;;;;18.57;59.13;101378.22;4977477;28;20033;-75
2023/08/19 01:48:58;;;;;;;13.98;10.32;;;;;;;18.51;59.04;101390.06;4975514;28;20107;-76
2023/08/19 01:51:28;;;;;;;11.35;8.68;;;;;;;18.59;58.80;101384.28;4976047;28;20118;-77
2023/08/19 01:53:54;;;;;;;12.05;10.68;;;;;;;18.64;58.87;101392.75;4975369;28;20482;-76
2023/08/19 01:56:20;;;;;;;14.93;11.10;;;;;;;18.51;59.09;101389.22;4961009;28;20037;-77
2023/08/19 01:58:47;;;;;;;13.45;10.48;;;;;;;18.40;59.61;101388.09;4974076;28;20056;-76
2023/08/19 02:01:13;;;;;;;12.32;10.15;;;;;;;18.42;59.49;101391.50;4975068;28;20788;-77
2023/08/19 02:03:39;;;;;;;18.90;10.45;;;;;;;18.51;59.14;101390.06;4958685;28;20042;-77
2023/08/19 02:06:04;;;;;;;12.40;9.50;;;;;;;18.53;59.46;101387.31;4962776;28;20950;-74
2023/08/19 02:08:30;;;;;;;17.95;10.27;;;;;;;18.55;59.09;101390.72;4965260;28;20047;-76
2023/08/19 02:10:55;;;;;;;12.55;9.73;;;;;;;18.51;59.07;101389.22;4981091;28;20026;-75
2023/08/19 02:13:21;;;;;;;13.80;10.82;;;;;;;18.47;59.62;101386.78;4978091;28;20104;-76
2023/08/19 02:15:46;;;;;;;14.25;10.63;;;;;;;18.45;59.51;101379.84;4976665;28;20184;-76
2023/08/19 02:18:14;;;;;;;13.68;11.48;;;;;;;18.35;59.88;101390.22;4979382;28;20074;-75
2023/08/19 02:20:39;;;;;;;16.27;11.45;;;;;;;18.43;59.54;101387.91;4977473;28;20488;-77
2023/08/19 02:23:05;;;;;;;18.02;12.90;;;;;;;18.10;60.32;101382.97;4991601;28;20043;-77
2023/08/19 02:25:30;;;;;;;14.82;10.43;;;;;;;18.44;59.25;101386.97;4976449;28;20030;-76
2023/08/19 02:27:56;;;;;;;15.05;10.38;;;;;;;18.43;59.00;101387.91;4970109;28;20046;-75
2023/08/19 02:30:21;;;;;;;15.98;10.32;;;;;;;18.43;59.12;101381.75;4979694;28;20060;-75
2023/08/19 02:32:47;;;;;;;16.67;11.18;;;;;;;18.36;58.77;101383.13;4989167;28;20032;-77
2023/08/19 02:35:13;;;;;;;17.05;12.05;;;;;;;18.27;59.25;101381.91;4995176;28;20033;-75
2023/08/19 02:37:39;;;;;;;14.85;10.85;;;;;;;18.27;59.55;101388.06;4976499;28;20059;-77
2023/08/19 02:40:06;;;;;;;18.88;10.27;;;;;;;18.33;59.53;101391.25;4992203;28;20145;-77
2023/08/19 02:42:31;;;;;;;17.13;12.38;;;;;;;18.00;60.46;101379.22;4976292;28;20183;-78
2023/08/19 02:44:57;;;;;;;13.48;9.95;;;;;;;18.25;59.42;101383.81;4992456;28;20503;-77
2023/08/19 02:47:23;;;;;;;12.15;10.50;;;;;;;18.23;59.58;101388.38;4976815;28;20036;-77
2023/08/19 02:49:49;;;;;;;16.08;10.80;;;;;;;18.22;59.25;101390.16;4979059;28;20033;-76
2023/08/19 02:52:14;;;;;;;15.13;11.30;;;;;;;18.17;59.37;101380.78;4962611;28;20037;-77
2023/08/19 02:54:40;;;;;;;14.00;11.95;;;;;;;18.11;59.68;101387.31;4995299;28;20092;-77
2023/08/19 02:57:05;;;;;;;11.93;9.75;;;;;;;18.08;59.96;101386.69;4979404;28;20137;-75
2023/08/19 02:59:31;;;;;;;22.15;13.13;;;;;;;18.05;59.87;101383.28;4978167;28;20517;-76
2023/08/19 03:01:56;;;;;;;15.38;10.48;;;;;;;18.10;59.86;101390.06;4976688;28;20192;-77
2023/08/19 03:04:22;;;;;;;18.35;12.18;;;;;;;18.09;59.99;101394.50;4976622;28;20049;-78
2023/08/19 03:06:47;;;;;;;17.38;11.73;;;;;;;18.05;59.73;101399.16;4981175;28;20112;-75
2023/08/19 03:09:13;;;;;;;19.35;13.40;;;;;;;18.05;59.90;101388.56;4973602;28;20046;-76
2023/08/19 03:11:41;;;;;;;17.40;12.43;;;;;;;18.04;59.91;101397.44;4995614;28;20034;-76
2023/08/19 03:14:09;;;;;;;19.77;12.53;;;;;;;18.02;60.26;101393.19;4992816;28;20127;-76
2023/08/19 03:16:35;;;;;;;15.38;12.77;;;;;;;18.02;59.75;101387.91;4995091;28;20030;-78
2023/08/19 03:19:00;;;;;;;15.32;12.07;;;;;;;18.00;60.09;101385.34;4961263;28;20115;-77
2023/08/19 03:21:26;;;;;;;18.52;13.45;;;;;;;17.95;59.72;101387.44;4977292;28;20041;-76
2023/08/19 03:23:51;;;;;;;15.90;12.02;;;;;;;17.95;59.98;101381.31;4982272;28;20038;-76
2023/08/19 03:26:17;;;;;;;12.52;10.32;;;;;;;17.87;59.53;101379.13;4975753;28;20686;-77
2023/08/19 03:28:42;;;;;;;12.63;11.18;;;;;;;17.83;59.85;101375.00;4980114;28;20049;-75
2023/08/19 03:31:09;;;;;;;21.00;13.27;;;;;;;17.74;59.88;101367.63;4981939;28;20040;-76
2023/08/19 03:33:35;;;;;;;15.45;12.13;;;;;;;17.73;60.32;101366.78;4976662;28;20598;-76
2023/08/19 03:36:01;;;;;;;19.55;13.30;;;;;;;17.74;60.46;101364.97;4976849;28;20038;-76
2023/08/19 03:38:29;;;;;;;22.33;12.73;;;;;;;17.78;60.62;101369.13;4977791;28;20673;-77
2023/08/19 03:40:54;;;;;;;20.00;13.13;;;;;;;17.75;60.30;101364.06;4991814;28;20030;-78
2023/08/19 03:43:20;;;;;;;16.63;13.15;;;;;;;17.80;60.36;101368.09;4989377;28;20500;-74
2023/08/19 03:45:45;;;;;;;21.00;14.30;;;;;;;17.78;60.24;101363.84;4991027;28;20757;-76
2023/08/19 03:48:13;;;;;;;21.20;14.02;;;;;;;17.77;60.69;101356.88;4978756;28;20070;-77
2023/08/19 03:50:38;;;;;;;19.85;12.93;;;;;;;17.76;60.58;101357.81;4975128;28;20689;-77
2023/08/19 03:53:05;;;;;;;18.98;14.95;;;;;;;17.73;60.83;101358.00;4992989;28;20050;-76
2023/08/19 03:55:31;;;;;;;21.23;13.43;;;;;;;17.73;60.52;101361.50;4978181;28;20816;-78
2023/08/19 03:57:56;;;;;;;18.30;14.45;;;;;;;17.68;61.10;101352.19;4975896;28;20042;-77
2023/08/19 04:00:22;;;;;;;22.60;15.23;;;;;;;17.73;61.11;101350.94;4974278;28;20092;-78
2023/08/19 04:02:48;;;;;;;20.17;14.82;;;;;;;17.74;61.05;101357.06;4973321;28;20054;-77
2023/08/19 04:05:14;;;;;;;22.23;15.25;;;;;;;17.69;61.14;101353.84;4987739;28;20096;-78
2023/08/19 04:07:40;;;;;;;18.75;14.48;;;;;;;17.67;61.16;101353.09;4972840;28;20092;-78
2023/08/19 04:10:07;;;;;;;20.70;15.15;;;;;;;17.77;60.80;101351.59;4978358;28;20485;-77
2023/08/19 04:12:33;;;;;;;20.08;15.20;;;;;;;17.76;61.02;101355.16;4988808;28;20504;-77
2023/08/19 04:14:58;;;;;;;23.65;15.32;;;;;;;17.77;60.63;101355.06;4956515;28;20038;-77
2023/08/19 04:17:25;;;;;;;19.55;14.88;;;;;;;17.75;60.76;101353.47;4977140;28;20068;-76
2023/08/19 04:19:51;;;;;;;20.95;14.93;;;;;;;17.74;60.73;101352.63;4978142;28;20050;-78
2023/08/19 04:22:17;;;;;;;20.30;15.43;;;;;;;17.76;60.43;101356.03;4977778;28;20696;-77
2023/08/19 04:24:48;;;;;;;20.05;14.65;;;;;;;17.82;60.84;101350.34;4975747;28;20080;-76
2023/08/19 04:27:14;;;;;;;22.50;16.73;;;;;;;17.75;60.90;101342.91;4958684;28;20092;-76
2023/08/19 04:29:40;;;;;;;19.73;15.77;;;;;;;17.78;60.49;101353.28;4975122;28;20509;-76
2023/08/19 04:32:06;;;;;;;21.27;16.00;;;;;;;17.76;61.04;101349.88;4972794;28;20985;-76
2023/08/19 04:34:32;;;;;;;24.52;17.50;;;;;;;17.81;60.98;101350.47;4958347;28;20085;-76
2023/08/19 04:36:59;;;;;;;19.23;16.85;;;;;;;17.94;60.54;101351.38;4976519;28;20026;-76
2023/08/19 04:39:26;;;;;;;23.65;17.98;;;;;;;17.94;60.55;101355.78;4965439;28;20048;-76
2023/08/19 04:41:56;;;;;;;25.67;16.52;;;;;;;17.95;60.32;101354.88;4974701;28;20606;-76
2023/08/19 04:44:24;;;;;;;24.13;16.92;;;;;;;18.04;60.13;101347.19;4954991;28;20042;-76
2023/08/19 04:46:49;;;;;;;25.05;16.65;;;;;;;18.07;60.58;101359.34;4991432;28;20025;-75
2023/08/19 04:49:16;;;;;;;25.23;16.17;;;;;;;18.19;59.83;101353.31;4972937;28;20155;-75
2023/08/19 04:51:43;;;;;;;20.45;16.05;;;;;;;18.16;60.13;101352.63;4978266;28;20840;-76
2023/08/19 04:54:09;;;;;;;24.17;16.95;;;;;;;18.22;60.16;101354.91;4980861;28;20044;-76
2023/08/19 04:56:35;;;;;;;25.67;16.92;;;;;;;18.32;59.65;101348.09;4990505;28;20049;-78
2023/08/19 04:59:01;;;;;;;26.73;17.10;;;;;;;18.33;59.91;101344.47;4981277;28;20153;-75
2023/08/19 05:01:28;;;;;;;22.60;16.30;;;;;;;18.37;59.70;101351.28;4976488;28;20026;-76
2023/08/19 05:03:54;;;;;;;25.17;16.27;;;;;;;18.34;59.68;101362.06;4980746;28;20729;-77
2023/08/19 05:06:22;;;;;;;20.60;16.45;;;;;;;18.48;59.72;101359.34;4973904;28;20037;-75
2023/08/19 05:08:48;;;;;;;21.60;16.55;;;;;;;18.51;59.53;101362.75;4959500;28;20048;-76
2023/08/19 05:11:14;;;;;;;25.25;16.70;;;;;;;18.60;59.70;101364.78;4990557;28;20029;-76
2023/08/19 05:13:44;;;;;;;19.92;16.27;;;;;;;18.56;59.68;101365.91;4962625;28;20198;-76
2023/08/19 05:16:13;;;;;;;25.05;17.05;;;;;;;18.85;59.19;101372.78;4978018;28;20169;-75
2023/08/19 05:18:38;;;;;;;20.85;16.33;;;;;;;19.04;58.49;101361.81;4961346;28;20054;-77
2023/08/19 05:21:04;;;;;;;21.25;16.88;;;;;;;19.21;58.33;101357.13;4978707;28;20045;-76
2023/08/19 05:23:29;;;;;;;23.67;15.98;;;;;;;19.44;57.92;101363.50;4954831;28;20045;-76
2023/08/19 05:25:55;;;;;;;19.83;15.18;;;;;;;19.71;56.52;101360.75;4992871;28;20542;-75
2023/08/19 05:28:21;;;;;;;25.27;15.80;;;;;;;19.83;56.21;101357.19;4974060;28;20058;-77
2023/08/19 05:30:46;;;;;;;22.67;15.98;;;;;;;20.09;56.02;101365.94;4988133;28;20648;-77
2023/08/19 05:33:12;;;;;;;16.83;14.45;;;;;;;20.49;55.29;101373.63;4975559;28;20054;-75
2023/08/19 05:35:38;;;;;;;22.20;16.30;;;;;;;21.32;52.55;101354.06;4973750;28;20044;-76
2023/08/19 05:38:03;;;;;;;19.50;14.88;;;;;;;22.18;50.16;101359.66;4977546;28;20045;-76
2023/08/19 05:40:29;;;;;;;17.83;14.13;;;;;;;22.70;47.98;101365.19;4987957;28;20030;-77
2023/08/19 05:42:54;;;;;;;21.55;14.23;;;;;;;23.61;46.63;101360.91;4961063;28;20431;-76
2023/08/19 05:45:20;;;;;;;17.33;13.05;;;;;;;23.52;46.02;101362.59;4975401;28;20714;-77
2023/08/19 05:47:46;;;;;;;17.25;13.13;;;;;;;23.55;45.43;101362.31;4960188;28;20057;-75
2023/08/19 05:50:12;;;;;;;19.95;13.55;;;;;;;23.67;45.57;101364.88;4980263;28;20676;-77
2023/08/19 05:52:37;;;;;;;26.00;13.43;;;;;;;23.65;45.24;101362.31;4960397;28;20632;-76
2023/08/19 05:55:03;;;;;;;13.27;11.88;;;;;;;24.00;45.06;101363.72;4995041;28;20025;-76
2023/08/19 05:57:29;;;;;;;17.88;12.30;;;;;;;23.70;45.11;101365.44;4995564;28;20668;-77
2023/08/19 05:59:54;;;;;;;16.10;12.85;;;;;;;23.36;46.02;101359.56;4978967;28;20033;-76
2023/08/19 06:02:20;;;;;;;18.05;11.43;;;;;;;22.95;47.31;101361.28;4978795;28;20030;-78
2023/08/19 06:04:46;;;;;;;16.45;12.48;;;;;;;23.25;46.89;101356.94;4983739;28;20088;-77
2023/08/19 06:07:21;;;;;;;17.08;11.52;;;;;;;23.93;45.71;101365.25;4981278;28;20164;-77
2023/08/19 06:09:46;;;;;;;14.98;11.63;;;;;;;24.35;43.60;101367.69;4965844;28;20447;-77
2023/08/19 06:12:12;;;;;;;15.80;11.85;;;;;;;24.75;43.32;101361.34;4985937;28;20029;-76
2023/08/19 06:14:38;;;;;;;15.05;11.70;;;;;;;25.72;41.44;101361.06;4990041;28;20053;-78
2023/08/19 06:17:04;;;;;;;12.07;10.85;;;;;;;26.89;38.64;101360.16;4983632;28;20052;-76
2023/08/19 06:19:30;;;;;;;13.68;11.13;;;;;;;27.16;38.34;101366.38;4988714;28;20042;-77
2023/08/19 06:21:55;;;;;;;15.55;11.00;;;;;;;26.53;39.42;101376.28;4992156;28;20088;-78
2023/08/19 06:24:21;;;;;;;17.00;12.20;;;;;;;26.25;39.79;101368.34;4972591;28;20171;-77
2023/08/19 06:26:47;;;;;;;14.48;11.52;;;;;;;26.59;38.90;101369.50;4980561;28;20065;-77
2023/08/19 06:29:12;;;;;;;14.48;10.82;;;;;;;26.82;38.68;101359.09;4975810;28;20138;-76
2023/08/19 06:31:39;;;;;;;18.13;12.95;;;;;;;26.99;38.10;101360.91;4987024;28;20034;-76
2023/08/19 06:34:05;;;;;;;24.30;17.38;;;;;;;26.43;39.31;101360.28;4963037;28;20045;-76
2023/08/19 06:36:33;;;;;;;12.80;11.10;;;;;;;25.56;40.76;101360.88;4974094;28;20417;-77
2023/08/19 06:39:16;;;;;;;12.98;11.57;;;;;;;26.10;39.70;101367.19;4990376;28;20050;-77
2023/08/19 06:41:46;;;;;;;15.68;12.25;;;;;;;26.94;38.20;101357.84;4972822;28;20045;-78
2023/08/19 06:44:20;;;;;;;16.80;11.68;;;;;;;26.92;38.55;101354.50;4990009;28;20080;-77
2023/08/19 06:46:46;;;;;;;19.70;12.82;;;;;;;26.36;39.62;101359.22;4978527;28;20548;-76
2023/08/19 06:49:12;;;;;;;26.08;14.73;;;;;;;26.75;38.84;101353.53;4975825;28;20047;-77
2023/08/19 06:51:38;;;;;;;18.95;11.60;;;;;;;25.71;40.80;101359.38;4970396;28;20744;-77
2023/08/19 06:54:03;;;;;;;16.40;12.07;;;;;;;25.27;41.83;101359.13;4993803;28;20463;-77
2023/08/19 06:56:33;;;;;;;15.63;11.38;;;;;;;25.58;41.99;101358.91;4978606;28;20054;-77
2023/08/19 06:59:11;;;;;;;12.00;10.77;;;;;;;25.82;40.90;101367.22;4994118;28;20515;-77
2023/08/19 07:01:39;;;;;;;14.68;10.73;;;;;;;25.68;41.97;101367.69;4969058;28;20098;-77
2023/08/19 07:04:06;;;;;;;16.60;11.00;;;;;;;25.68;41.13;101365.03;4973283;28;20049;-77
2023/08/19 07:06:37;;;;;;;20.13;10.80;;;;;;;25.50;41.94;101362.25;4991518;28;20045;-78
2023/08/19 07:09:05;;;;;;;15.48;10.73;;;;;;;26.14;40.71;101355.19;4974349;28;20240;-76
2023/08/19 07:11:32;;;;;;;14.60;11.43;;;;;;;25.92;41.07;101366.31;4973671;28;20076;-76
2023/08/19 07:13:58;;;;;;;15.38;11.75;;;;;;;25.24;42.02;101362.09;4992172;28;20064;-74
2023/08/19 07:16:26;;;;;;;13.02;10.63;;;;;;;25.01;43.43;101367.78;4990465;28;20447;-76
2023/08/19 07:18:54;;;;;;;17.60;10.75;;;;;;;24.60;44.38;101368.97;4976054;28;20485;-75
2023/08/19 07:21:22;;;;;;;18.42;13.50;;;;;;;23.97;45.28;101369.34;4977626;28;20034;-77
2023/08/19 07:23:48;;;;;;;18.17;11.05;;;;;;;23.97;45.92;101372.00;4974479;28;20495;-76
2023/08/19 07:26:18;;;;;;;15.13;12.35;;;;;;;24.69;44.52;101359.25;4981732;28;20621;-76
2023/08/19 07:28:44;;;;;;;15.07;11.80;;;;;;;26.04;42.49;101354.38;4956704;28;20338;-75
2023/08/19 07:31:11;;;;;;;14.38;11.73;;;;;;;26.37;40.67;101360.06;4979004;28;20056;-76
2023/08/19 07:33:36;;;;;;;13.73;10.85;;;;;;;26.95;39.33;101362.22;4987420;28;20121;-77
2023/08/19 07:36:02;;;;;;;14.93;10.40;;;;;;;27.20;39.43;101362.38;4979265;28;20022;-76
2023/08/19 07:38:28;;;;;;;13.27;11.45;;;;;;;27.10;39.83;101362.47;4960482;28;20104;-76
2023/08/19 07:40:56;;;;;;;13.15;11.07;;;;;;;27.93;38.38;101369.91;4978643;28;20721;-76
2023/08/19 07:43:22;;;;;;;15.25;10.60;;;;;;;29.05;35.32;101360.34;4977195;28;20073;-76
2023/08/19 07:45:47;;;;;;;14.20;11.15;;;;;;;27.84;37.70;101363.66;4989406;28;20499;-76
2023/08/19 07:48:13;;;;;;;16.23;11.27;;;;;;;26.25;40.38;101368.34;4980019;28;20042;-75
2023/08/19 07:50:38;;;;;;;18.30;12.50;;;;;;;24.93;43.45;101373.00;4993248;28;20044;-77
2023/08/19 07:53:04;;;;;;;17.63;13.07;;;;;;;24.54;44.31;101372.22;4981187;28;20041;-80
2023/08/19 07:55:29;;;;;;;17.13;12.25;;;;;;;24.31;44.95;101368.94;4990600;28;20687;-77
2023/08/19 07:57:55;;;;;;;16.40;12.77;;;;;;;24.29;45.87;101377.09;4978433;28;20042;-77
2023/08/19 08:00:21;;;;;;;27.02;16.10;;;;;;;23.99;46.41;101370.88;4993606;28;20149;-76
2023/08/19 08:02:47;;;;;;;25.70;15.20;;;;;;;23.72;47.34;101378.63;4991488;28;20045;-77
2023/08/19 08:05:12;;;;;;;19.10;12.68;;;;;;;23.83;47.03;101381.19;4993806;28;20029;-77
2023/08/19 08:07:38;;;;;;;26.20;16.52;;;;;;;24.09;46.67;101376.22;4988599;28;20037;-76
2023/08/19 08:10:03;;;;;;;19.30;13.48;;;;;;;23.97;46.98;101383.53;4962679;28;20092;-76
2023/08/19 08:12:30;;;;;;;22.55;14.60;;;;;;;23.82;47.53;101382.19;4976360;28;20038;-76
2023/08/19 08:14:59;;;;;;;17.00;12.48;;;;;;;23.41;48.45;101379.53;4974276;28;20025;-76
2023/08/19 08:17:25;;;;;;;16.40;12.02;;;;;;;23.47;48.90;101379.97;4989458;28;20046;-77
2023/08/19 08:19:50;;;;;;;22.33;13.00;;;;;;;23.42;48.44;101383.88;4990302;28;20038;-77
2023/08/19 08:22:16;;;;;;;15.88;12.85;;;;;;;23.32;48.91;101377.66;4989797;28;20038;-77
2023/08/19 08:24:42;;;;;;;16.67;12.98;;;;;;;23.26;49.75;101375.50;4992290;28;20404;-76
2023/08/19 08:27:08;;;;;;;22.45;13.07;;;;;;;23.25;49.08;101371.13;4979450;28;20038;-77
2023/08/19 08:29:34;;;;;;;18.70;13.68;;;;;;;23.39;49.16;101375.31;4978409;28;20046;-76
2023/08/19 08:31:59;;;;;;;18.80;13.77;;;;;;;23.37;49.23;101378.09;4968857;28;20030;-75
2023/08/19 08:34:25;;;;;;;16.73;13.32;;;;;;;23.31;49.39;101375.97;4992535;28;20170;-75
2023/08/19 08:36:51;;;;;;;18.48;13.45;;;;;;;23.48;49.58;101376.31;4977900;28;20041;-77
2023/08/19 08:39:17;;;;;;;13.43;12.02;;;;;;;23.59;49.33;101385.06;4961602;28;20041;-75
2023/08/19 08:41:44;;;;;;;16.83;14.20;;;;;;;23.49;49.69;101378.00;4988580;28;20290;-77
2023/08/19 08:44:10;;;;;;;16.52;12.18;;;;;;;23.31;50.16;101375.97;4982075;28;20132;-76
2023/08/19 08:46:39;;;;;;;16.48;12.13;;;;;;;23.58;49.90;101380.69;4977424;28;20112;-76
2023/08/19 08:49:05;;;;;;;18.38;13.50;;;;;;;23.71;49.60;101377.81;4979797;28;20148;-76
2023/08/19 08:51:34;;;;;;;17.02;12.63;;;;;;;23.73;49.81;101381.19;4993474;28;20052;-77
2023/08/19 08:54:00;;;;;;;18.98;12.52;;;;;;;23.73;49.42;101380.34;4982766;28;20144;-76
2023/08/19 08:56:29;;;;;;;19.80;12.60;;;;;;;23.75;48.83;101378.38;4981307;28;20038;-77
2023/08/19 08:58:54;;;;;;;16.17;13.05;;;;;;;23.77;49.47;101379.94;4981017;28;20046;-76
2023/08/19 09:01:22;;;;;;;16.20;13.02;;;;;;;23.71;49.39;101377.81;4965553;28;20049;-76
2023/08/19 09:03:52;;;;;;;16.50;12.23;;;;;;;24.14;48.12;101378.47;4973942;28;20542;-77
2023/08/19 09:06:18;;;;;;;14.27;11.38;;;;;;;24.19;47.93;101377.09;4995778;28;20042;-77
2023/08/19 09:08:51;;;;;;;14.68;11.98;;;;;;;24.35;47.90;101381.88;4977805;28;20045;-76
2023/08/19 09:11:25;;;;;;;14.55;11.68;;;;;;;24.64;46.68;101365.03;4995586;28;20026;-77
2023/08/19 09:14:01;;;;;;;14.73;11.43;;;;;;;24.65;46.91;101383.59;4987555;28;20045;-76
2023/08/19 09:16:26;;;;;;;18.75;11.20;;;;;;;24.73;46.65;101382.88;4974218;28;20038;-76
2023/08/19 09:18:52;;;;;;;13.73;11.77;;;;;;;24.94;46.67;101366.66;4977595;28;20790;-76
2023/08/19 09:21:17;;;;;;;19.77;11.15;;;;;;;24.97;46.12;101377.13;4982660;28;20072;-77
2023/08/19 09:23:43;;;;;;;15.18;11.52;;;;;;;25.14;45.77;101377.34;4976900;28;20046;-74
2023/08/19 09:26:10;;;;;;;16.20;11.88;;;;;;;24.88;45.82;101380.59;4996798;28;20083;-76
2023/08/19 09:28:36;;;;;;;19.25;12.25;;;;;;;24.59;46.56;101373.47;4989557;28;20046;-74
2023/08/19 09:31:18;;;;;;;14.98;11.25;;;;;;;24.59;46.52;101373.47;4980445;28;20157;-75
2023/08/19 09:33:44;;;;;;;15.57;12.73;;;;;;;24.53;47.34;101374.03;4961055;28;20050;-76
2023/08/19 09:36:10;;;;;;;11.77;10.07;;;;;;;24.65;46.86;101370.22;4980024;28;20044;-75
2023/08/19 09:38:35;;;;;;;15.48;11.75;;;;;;;24.65;46.92;101372.91;4977577;28;20064;-77
2023/08/19 09:41:04;;;;;;;13.85;12.07;;;;;;;24.77;46.76;101370.06;4993831;28;20034;-76
2023/08/19 09:43:30;;;;;;;17.80;12.27;;;;;;;25.05;46.39;101371.88;4995096;28;20122;-75
2023/08/19 09:45:57;;;;;;;20.27;12.10;;;;;;;25.24;46.17;101351.38;4994417;28;20045;-78
2023/08/19 09:48:23;;;;;;;15.38;11.45;;;;;;;25.51;45.45;101352.41;4978219;28;20128;-76
2023/08/19 09:50:49;;;;;;;15.98;11.70;;;;;;;25.58;45.59;101356.22;4991386;28;20034;-78
2023/08/19 09:53:18;;;;;;;15.82;11.63;;;;;;;25.20;45.66;101350.84;4981158;28;20637;-77
2023/08/19 09:55:49;;;;;;;15.75;12.73;;;;;;;25.14;45.59;101351.44;4993900;28;20057;-77
2023/08/19 09:58:14;;;;;;;15.93;11.88;;;;;;;24.94;46.17;101355.97;4992637;28;20617;-78
2023/08/19 10:00:41;;;;;;;15.82;11.48;;;;;;;24.96;45.35;101354.00;4972845;28;20044;-77
2023/08/19 10:03:07;;;;;;;12.93;11.48;;;;;;;24.88;46.16;101347.69;4978186;28;20045;-76
2023/08/19 10:05:39;;;;;;;14.68;12.38;;;;;;;24.51;46.45;101359.13;4980166;28;20088;-76
2023/08/19 10:08:10;;;;;;;16.70;12.35;;;;;;;24.29;46.58;101362.91;4959352;28;20045;-77
2023/08/19 10:10:44;;;;;;;13.35;10.85;;;;;;;24.51;46.06;101359.97;4979297;28;20312;-77
2023/08/19 10:13:12;;;;;;;14.00;12.05;;;;;;;24.31;47.04;101367.13;4994153;28;20085;-75
2023/08/19 10:15:41;;;;;;;14.88;11.30;;;;;;;24.62;46.75;101373.19;4979853;28;20041;-78
2023/08/19 10:18:16;;;;;;;17.58;11.27;;;;;;;24.62;46.54;101367.84;4993795;28;20073;-76
2023/08/19 10:20:45;;;;;;;12.15;10.65;;;;;;;24.93;45.72;101365.00;4979059;28;20033;-77
2023/08/19 10:23:12;;;;;;;12.50;10.80;;;;;;;24.84;46.48;101366.69;4979510;28;20120;-75
2023/08/19 10:25:42;;;;;;;15.93;11.70;;;;;;;25.05;45.80;101363.84;4977584;28;20057;-77
2023/08/19 10:28:13;;;;;;;15.35;11.40;;;;;;;25.48;44.71;101361.56;4961254;28;20064;-74
2023/08/19 10:30:39;;;;;;;17.05;11.68;;;;;;;25.65;44.60;101354.63;4978613;28;20037;-77
2023/08/19 10:33:30;;;;;;;14.90;11.38;;;;;;;25.65;43.62;101359.97;4976653;28;20060;-75
2023/08/19 10:36:02;;;;;;;14.57;11.98;;;;;;;25.66;43.81;101362.50;4971994;28;20041;-76
2023/08/19 10:38:47;;;;;;;16.52;11.98;;;;;;;26.05;44.10;101358.75;4960574;28;20566;-77
2023/08/19 10:41:22;;;;;;;14.63;11.60;;;;;;;25.93;43.55;101358.09;4995996;28;20616;-75
2023/08/19 10:43:54;;;;;;;17.15;12.85;;;;;;;26.40;43.21;101359.75;4973698;28;20042;-76
2023/08/19 10:46:27;;;;;;;22.02;13.20;;;;;;;26.41;41.85;101356.09;4994105;28;20030;-75
2023/08/19 10:48:53;;;;;;;13.45;10.52;;;;;;;26.45;42.75;101357.47;4975615;28;21796;-75
2023/08/19 10:51:19;;;;;;;16.23;10.90;;;;;;;27.01;42.05;101364.25;4979615;28;20656;-75
2023/08/19 10:53:49;;;;;;;13.38;10.57;;;;;;;27.17;41.90;101360.88;4978664;28;20045;-76
2023/08/19 10:56:15;;;;;;;13.40;10.47;;;;;;;27.48;40.89;101360.34;4957635;28;20026;-77
2023/08/19 10:58:46;;;;;;;12.15;10.43;;;;;;;27.82;41.58;101357.63;5001701;28;20061;-76
2023/08/19 11:01:11;;;;;;;13.65;10.25;;;;;;;27.84;40.26;101363.66;4978130;28;20033;-77
2023/08/19 11:03:38;;;;;;;13.63;12.13;;;;;;;27.03;41.33;101356.06;4987413;28;20403;-76
2023/08/19 11:06:06;;;;;;;14.82;11.77;;;;;;;26.70;41.93;101362.03;4964578;28;20075;-77
2023/08/19 11:08:41;;;;;;;13.93;11.48;;;;;;;26.79;41.97;101354.91;4973519;28;20062;-76
2023/08/19 11:11:07;;;;;;;23.90;15.25;;;;;;;26.99;41.69;101355.53;4978545;28;20124;-78